createdAt,value
2022-10-17T00:00:52.127Z,90.90
2022-10-17T00:03:19.562Z,90.90
2022-10-17T00:05:48.316Z,90.90
2022-10-17T00:08:16.336Z,90.90
2022-10-17T00:10:43.891Z,90.90
2022-10-17T00:13:11.609Z,90.80
2022-10-17T00:15:39.162Z,90.80
2022-10-17T00:18:06.568Z,90.80
2022-10-17T00:20:35.459Z,90.90
2022-10-17T00:23:02.846Z,91.00
2022-10-17T00:25:30.268Z,91.00
2022-10-17T00:27:57.826Z,91.00
2022-10-17T00:30:25.465Z,91.00
2022-10-17T00:32:52.896Z,91.00
2022-10-17T00:35:20.601Z,91.00
2022-10-17T00:37:49.097Z,91.00
2022-10-17T00:40:18.028Z,91.00
2022-10-17T00:42:47.536Z,91.00
2022-10-17T00:45:27.192Z,91.00
2022-10-17T00:47:58.179Z,91.10
2022-10-17T00:50:25.912Z,91.10
2022-10-17T00:52:53.414Z,91.10
2022-10-17T00:55:31.219Z,91.10
2022-10-17T00:58:00.774Z,91.10
2022-10-17T01:00:28.209Z,91.10
2022-10-17T01:02:55.767Z,91.10
2022-10-17T01:05:23.217Z,91.10
2022-10-17T01:07:51.628Z,91.00
2022-10-17T01:10:19.863Z,91.00
2022-10-17T01:13:11.612Z,90.90
2022-10-17T01:15:51.604Z,90.90
2022-10-17T01:18:22.010Z,90.80
2022-10-17T01:20:52.576Z,90.70
2022-10-17T01:23:30.628Z,90.80
2022-10-17T01:26:01.363Z,90.90
2022-10-17T01:31:16.433Z,91.20
2022-10-17T01:33:43.995Z,91.30
2022-10-17T01:36:14.576Z,91.50
2022-10-17T01:38:46.021Z,91.60
2022-10-17T01:41:25.875Z,91.60
2022-10-17T01:43:55.836Z,91.60
2022-10-17T01:46:27.598Z,91.60
2022-10-17T01:48:56.125Z,91.60
2022-10-17T01:51:28.165Z,91.60
2022-10-17T01:54:09.694Z,91.60
2022-10-17T01:56:38.217Z,91.60
2022-10-17T01:59:20.683Z,91.60
2022-10-17T02:01:50.888Z,91.60
2022-10-17T02:04:18.487Z,91.60
2022-10-17T02:06:45.924Z,91.50
2022-10-17T02:09:17.365Z,91.50
2022-10-17T02:11:48.147Z,91.60
2022-10-17T02:14:18.646Z,91.50
2022-10-17T02:16:51.880Z,91.50
2022-10-17T02:19:22.437Z,91.50
2022-10-17T02:21:53.305Z,91.50
2022-10-17T02:24:25.643Z,91.50
2022-10-17T02:26:56.760Z,91.50
2022-10-17T02:29:30.670Z,91.40
2022-10-17T02:31:59.971Z,91.40
2022-10-17T02:34:35.341Z,91.40
2022-10-17T02:37:05.698Z,91.40
2022-10-17T02:39:34.760Z,91.30
2022-10-17T02:42:03.677Z,91.30
2022-10-17T02:44:32.285Z,91.30
2022-10-17T02:47:03.608Z,91.20
2022-10-17T02:49:36.199Z,91.20
2022-10-17T02:52:08.351Z,91.20
2022-10-17T02:54:45.784Z,91.20
2022-10-17T02:57:13.276Z,91.10
2022-10-17T02:59:41.887Z,91.10
2022-10-17T03:02:09.327Z,91.10
2022-10-17T03:04:37.613Z,91.10
2022-10-17T03:07:04.988Z,91.10
2022-10-17T03:09:32.408Z,91.10
2022-10-17T03:11:59.884Z,91.10
2022-10-17T03:14:27.291Z,91.00
2022-10-17T03:16:54.731Z,91.00
2022-10-17T03:19:22.725Z,91.00
2022-10-17T03:21:52.077Z,90.90
2022-10-17T03:24:19.554Z,90.90
2022-10-17T03:29:19.497Z,90.90
2022-10-17T03:31:47.605Z,91.00
2022-10-17T03:34:17.757Z,91.10
2022-10-17T03:36:45.661Z,91.20
2022-10-17T03:39:13.181Z,91.20
2022-10-17T03:41:40.949Z,91.20
2022-10-17T03:44:08.324Z,91.20
2022-10-17T03:46:35.837Z,91.20
2022-10-17T03:49:04.338Z,91.20
2022-10-17T03:51:33.189Z,91.20
2022-10-17T03:54:05.411Z,91.10
2022-10-17T03:56:33.833Z,91.20
2022-10-17T03:59:07.784Z,91.20
2022-10-17T04:01:37.790Z,91.10
2022-10-17T04:04:05.498Z,91.20
2022-10-17T04:06:35.560Z,91.10
2022-10-17T04:09:04.304Z,91.10
2022-10-17T04:11:51.981Z,91.10
2022-10-17T04:14:21.155Z,91.10
2022-10-17T04:16:48.784Z,91.10
2022-10-17T04:19:20.749Z,91.00
2022-10-17T04:21:48.411Z,91.00
2022-10-17T04:24:16.305Z,90.90
2022-10-17T04:27:02.660Z,90.90
2022-10-17T04:29:33.106Z,90.80
2022-10-17T04:32:18.019Z,90.70
2022-10-17T04:34:58.140Z,90.60
2022-10-17T04:37:25.564Z,90.50
2022-10-17T04:39:54.983Z,90.50
2022-10-17T04:42:22.694Z,90.40
2022-10-17T04:44:53.023Z,90.30
2022-10-17T04:47:20.409Z,90.30
2022-10-17T04:49:47.833Z,90.30
2022-10-17T04:52:16.755Z,90.30
2022-10-17T04:54:45.615Z,90.30
2022-10-17T04:57:14.666Z,90.30
2022-10-17T04:59:47.502Z,90.30
2022-10-17T05:02:43.909Z,90.20
2022-10-17T05:05:11.332Z,90.20
2022-10-17T05:07:41.913Z,90.10
2022-10-17T05:10:19.418Z,90.10
2022-10-17T05:12:50.346Z,90.10
2022-10-17T05:15:19.805Z,90.10
2022-10-17T05:17:47.259Z,90.10
2022-10-17T05:20:14.980Z,90.20
2022-10-17T05:22:42.534Z,90.20
2022-10-17T05:25:11.772Z,90.10
2022-10-17T05:27:39.239Z,90.10
2022-10-17T05:30:07.464Z,90.20
2022-10-17T05:32:36.636Z,90.10
2022-10-17T05:35:04.417Z,90.20
2022-10-17T05:37:32.933Z,90.00
2022-10-17T05:40:02.718Z,90.00
2022-10-17T05:42:31.694Z,90.00
2022-10-17T05:45:00.606Z,89.90
2022-10-17T05:47:28.338Z,89.90
2022-10-17T05:49:56.108Z,89.90
2022-10-17T05:52:33.009Z,89.80
2022-10-17T05:55:09.087Z,89.70
2022-10-17T05:57:36.717Z,89.80
2022-10-17T06:00:07.765Z,89.70
2022-10-17T06:02:49.645Z,89.70
2022-10-17T06:05:19.173Z,89.70
2022-10-17T06:07:49.238Z,89.70
2022-10-17T06:10:18.644Z,89.60
2022-10-17T06:12:46.455Z,89.70
2022-10-17T06:15:15.226Z,89.60
2022-10-17T06:17:46.109Z,89.70
2022-10-17T06:20:13.737Z,89.80
2022-10-17T06:22:41.269Z,89.80
2022-10-17T06:25:14.917Z,89.90
2022-10-17T06:27:42.896Z,89.90
2022-10-17T06:30:11.959Z,90.00
2022-10-17T06:32:39.421Z,90.10
2022-10-17T06:35:07.037Z,90.20
2022-10-17T06:37:36.690Z,90.20
2022-10-17T06:40:10.428Z,90.30
2022-10-17T06:42:39.245Z,90.30
2022-10-17T06:45:09.310Z,90.30
2022-10-17T06:47:54.193Z,90.40
2022-10-17T06:51:00.661Z,90.40
2022-10-17T06:53:29.306Z,90.50
2022-10-17T06:56:15.055Z,90.60
2022-10-17T06:59:09.353Z,90.50
2022-10-17T07:01:40.685Z,90.50
2022-10-17T07:04:12.208Z,90.50
2022-10-17T07:06:39.712Z,90.60
2022-10-17T07:09:13.997Z,90.60
2022-10-17T07:11:41.983Z,90.50
2022-10-17T07:14:09.623Z,90.50
2022-10-17T07:16:37.129Z,90.40
2022-10-17T07:19:25.127Z,90.40
2022-10-17T07:21:53.132Z,90.40
2022-10-17T07:24:21.063Z,90.50
2022-10-17T07:27:08.733Z,90.50
2022-10-17T07:29:36.295Z,90.50
2022-10-17T07:32:19.060Z,90.50
2022-10-17T07:34:46.510Z,90.50
2022-10-17T07:37:14.366Z,90.50
2022-10-17T07:39:48.644Z,90.40
2022-10-17T07:42:16.924Z,90.40
2022-10-17T07:44:47.425Z,90.40
2022-10-17T07:47:14.955Z,90.50
2022-10-17T07:49:45.284Z,90.50
2022-10-17T07:52:13.393Z,90.50
2022-10-17T07:54:41.106Z,90.60
2022-10-17T07:57:08.996Z,90.60
2022-10-17T07:59:37.420Z,90.50
2022-10-17T08:02:04.832Z,90.60
2022-10-17T08:04:32.288Z,90.70
2022-10-17T08:07:11.319Z,90.70
2022-10-17T08:09:47.486Z,90.70
2022-10-17T08:12:15.277Z,90.70
2022-10-17T08:14:43.465Z,90.60
2022-10-17T08:17:10.849Z,90.60
2022-10-17T08:19:39.332Z,90.60
2022-10-17T08:22:07.427Z,90.50
2022-10-17T08:24:34.967Z,90.40
2022-10-17T08:27:02.503Z,90.40
2022-10-17T08:29:29.927Z,90.20
2022-10-17T08:32:00.821Z,90.20
2022-10-17T08:34:29.356Z,90.00
2022-10-17T08:36:56.978Z,89.80
2022-10-17T08:39:24.457Z,89.60
2022-10-17T08:41:54.840Z,89.30
2022-10-17T08:44:42.579Z,89.10
2022-10-17T08:47:12.671Z,88.70
2022-10-17T08:49:40.023Z,88.40
2022-10-17T08:52:11.378Z,88.00
2022-10-17T08:54:41.697Z,87.60
2022-10-17T08:57:11.934Z,87.00
2022-10-17T08:59:39.602Z,86.20
2022-10-17T09:02:26.340Z,85.50
2022-10-17T09:05:17.121Z,85.00
2022-10-17T09:07:59.951Z,84.70
2022-10-17T09:10:27.389Z,84.60
2022-10-17T09:13:13.659Z,84.50
2022-10-17T09:16:04.578Z,83.90
2022-10-17T09:18:34.212Z,83.20
2022-10-17T09:21:21.896Z,82.10
2022-10-17T09:24:03.792Z,81.60
2022-10-17T09:26:39.311Z,81.00
2022-10-17T09:29:14.704Z,80.30
2022-10-17T09:31:54.977Z,78.70
2022-10-17T09:34:25.234Z,78.50
2022-10-17T09:36:54.151Z,78.10
2022-10-17T09:39:24.819Z,78.40
2022-10-17T09:41:54.165Z,78.00
2022-10-17T09:44:22.027Z,77.80
2022-10-17T09:46:52.517Z,77.90
2022-10-17T09:49:25.404Z,77.30
2022-10-17T09:51:53.052Z,76.90
2022-10-17T09:54:22.579Z,76.80
2022-10-17T09:57:01.508Z,76.90
2022-10-17T09:59:52.419Z,77.00
2022-10-17T10:02:21.406Z,76.30
2022-10-17T10:05:03.691Z,75.40
2022-10-17T10:07:33.837Z,75.60
2022-10-17T10:10:03.196Z,75.50
2022-10-17T10:12:32.478Z,75.50
2022-10-17T10:15:00.499Z,75.00
2022-10-17T10:17:36.102Z,74.70
2022-10-17T10:20:23.715Z,73.30
2022-10-17T10:23:07.364Z,73.20
2022-10-17T10:25:35.495Z,74.00
2022-10-17T10:28:09.717Z,74.10
2022-10-17T10:30:39.817Z,74.30
2022-10-17T10:33:11.511Z,73.30
2022-10-17T10:35:39.031Z,73.60
2022-10-17T10:38:16.885Z,72.90
2022-10-17T10:40:52.796Z,71.90
2022-10-17T10:43:23.169Z,72.10
2022-10-17T10:45:51.491Z,71.50
2022-10-17T10:48:21.811Z,71.60
2022-10-17T10:50:50.894Z,71.20
2022-10-17T10:53:21.286Z,71.20
2022-10-17T10:55:54.461Z,70.70
2022-10-17T10:58:40.253Z,69.10
2022-10-17T11:01:28.531Z,67.20
2022-10-17T11:04:14.700Z,65.70
2022-10-17T11:06:43.896Z,66.70
2022-10-17T11:09:18.309Z,66.10
2022-10-17T11:11:48.208Z,65.30
2022-10-17T11:14:23.065Z,64.20
2022-10-17T11:16:56.328Z,62.40
2022-10-17T11:19:32.274Z,62.60
2022-10-17T11:22:07.540Z,62.20
2022-10-17T11:24:41.209Z,62.90
2022-10-17T11:27:08.668Z,62.00
2022-10-17T11:29:38.682Z,62.70
2022-10-17T11:32:12.810Z,62.90
2022-10-17T11:34:42.686Z,62.10
2022-10-17T11:37:14.385Z,61.80
2022-10-17T11:39:49.302Z,61.40
2022-10-17T11:42:22.090Z,61.60
2022-10-17T11:44:50.877Z,61.20
2022-10-17T11:47:18.330Z,61.70
2022-10-17T11:49:51.047Z,61.50
2022-10-17T11:52:51.810Z,62.00
2022-10-17T11:55:23.532Z,60.90
2022-10-17T11:57:50.915Z,61.70
2022-10-17T12:00:24.804Z,61.70
2022-10-17T12:03:10.784Z,60.80
2022-10-17T12:05:59.123Z,61.10
2022-10-17T12:08:46.744Z,61.40
2022-10-17T12:11:20.439Z,60.20
2022-10-17T12:13:49.076Z,59.70
2022-10-17T12:16:17.599Z,60.40
2022-10-17T12:18:45.721Z,60.90
2022-10-17T12:21:13.302Z,60.10
2022-10-17T12:23:41.285Z,59.20
2022-10-17T12:26:09.597Z,59.30
2022-10-17T12:28:37.318Z,59.50
2022-10-17T12:31:10.189Z,59.20
2022-10-17T12:33:51.823Z,59.00
2022-10-17T12:36:21.222Z,59.20
2022-10-17T12:38:50.429Z,59.20
2022-10-17T12:41:37.972Z,59.60
2022-10-17T12:44:15.149Z,59.90
2022-10-17T12:46:52.164Z,60.00
2022-10-17T12:49:19.758Z,59.70
2022-10-17T12:52:05.422Z,59.10
2022-10-17T12:54:47.804Z,59.00
2022-10-17T12:57:24.871Z,59.60
2022-10-17T12:59:56.625Z,59.70
2022-10-17T13:02:27.399Z,57.80
2022-10-17T13:04:59.081Z,57.70
2022-10-17T13:07:26.941Z,58.10
2022-10-17T13:09:54.729Z,58.80
2022-10-17T13:12:24.866Z,58.20
2022-10-17T13:14:54.012Z,56.60
2022-10-17T13:17:27.612Z,56.60
2022-10-17T13:19:55.665Z,55.90
2022-10-17T13:22:23.099Z,55.60
2022-10-17T13:24:51.575Z,55.80
2022-10-17T13:27:23.806Z,55.30
2022-10-17T13:29:51.268Z,55.20
2022-10-17T13:32:18.622Z,54.70
2022-10-17T13:34:45.993Z,54.70
2022-10-17T13:37:14.854Z,55.30
2022-10-17T13:39:55.300Z,55.30
2022-10-17T13:42:25.787Z,55.50
2022-10-17T13:44:53.270Z,56.00
2022-10-17T13:47:22.079Z,55.70
2022-10-17T13:49:52.907Z,55.20
2022-10-17T13:52:24.920Z,54.00
2022-10-17T13:54:53.305Z,53.70
2022-10-17T13:57:25.078Z,53.90
2022-10-17T14:00:09.951Z,54.30
2022-10-17T14:02:42.022Z,54.70
2022-10-17T14:05:17.688Z,53.80
2022-10-17T14:08:21.895Z,53.80
2022-10-17T14:10:47.740Z,52.70
2022-10-17T14:13:25.670Z,53.20
2022-10-17T14:15:54.819Z,53.50
2022-10-17T14:18:29.879Z,53.60
2022-10-17T14:21:34.388Z,53.90
2022-10-17T14:23:48.870Z,52.90
2022-10-17T14:26:25.393Z,53.50
2022-10-17T14:29:19.972Z,53.00
2022-10-17T14:31:50.798Z,53.00
2022-10-17T14:34:22.380Z,52.80
2022-10-17T14:36:51.287Z,52.90
2022-10-17T14:39:20.807Z,53.10
2022-10-17T14:41:48.225Z,52.80
2022-10-17T14:44:26.298Z,53.10
2022-10-17T14:46:55.100Z,53.30
2022-10-17T14:49:33.494Z,52.60
2022-10-17T14:52:13.690Z,52.90
2022-10-17T14:54:46.777Z,53.10
2022-10-17T14:57:19.149Z,52.50
2022-10-17T14:59:55.485Z,52.60
2022-10-17T15:02:27.489Z,52.30
2022-10-17T15:04:55.347Z,52.70
2022-10-17T15:07:23.961Z,52.90
2022-10-17T15:09:52.967Z,53.20
2022-10-17T15:12:25.299Z,53.10
2022-10-17T15:14:53.367Z,53.10
2022-10-17T15:17:28.477Z,53.30
2022-10-17T15:19:56.447Z,53.30
2022-10-17T15:22:23.985Z,52.90
2022-10-17T15:24:51.868Z,53.10
2022-10-17T15:27:20.459Z,53.10
2022-10-17T15:29:48.157Z,53.50
2022-10-17T15:32:15.938Z,53.90
2022-10-17T15:34:43.476Z,54.10
2022-10-17T15:37:22.266Z,54.00
2022-10-17T15:39:54.720Z,54.50
2022-10-17T15:42:23.135Z,54.80
2022-10-17T15:44:50.703Z,54.80
2022-10-17T15:47:25.943Z,55.10
2022-10-17T15:49:58.433Z,55.20
2022-10-17T15:52:29.604Z,55.30
2022-10-17T15:55:00.865Z,55.40
2022-10-17T15:57:34.222Z,55.80
2022-10-17T16:00:01.745Z,56.40
2022-10-17T16:02:29.334Z,56.80
2022-10-17T16:04:56.693Z,57.10
2022-10-17T16:07:24.089Z,57.40
2022-10-17T16:09:51.864Z,57.60
2022-10-17T16:14:50.711Z,58.10
2022-10-17T16:17:18.342Z,57.70
2022-10-17T16:19:45.688Z,57.20
2022-10-17T16:22:19.025Z,56.90
2022-10-17T16:24:46.651Z,56.40
2022-10-17T16:27:14.205Z,56.60
2022-10-17T16:29:41.663Z,56.70
2022-10-17T16:32:09.328Z,56.40
2022-10-17T16:34:36.627Z,56.50
2022-10-17T16:37:04.076Z,56.70
2022-10-17T16:39:31.496Z,56.90
2022-10-17T16:41:58.880Z,57.20
2022-10-17T16:44:26.402Z,57.40
2022-10-17T16:46:53.798Z,57.70
2022-10-17T16:49:21.217Z,58.00
2022-10-17T16:51:48.641Z,58.30
2022-10-17T16:54:16.073Z,58.70
2022-10-17T16:56:43.412Z,59.20
2022-10-17T16:59:11.590Z,59.60
2022-10-17T17:01:39.236Z,59.90
2022-10-17T17:04:06.627Z,60.30
2022-10-17T17:06:33.995Z,60.70
2022-10-17T17:09:01.482Z,61.10
2022-10-17T17:11:29.053Z,61.50
2022-10-17T17:13:57.071Z,61.90
2022-10-17T17:16:25.304Z,62.20
2022-10-17T17:18:56.662Z,62.70
2022-10-17T17:21:24.474Z,63.20
2022-10-17T17:23:52.123Z,63.90
2022-10-17T17:26:20.567Z,64.80
2022-10-17T17:28:48.587Z,65.60
2022-10-17T17:31:18.693Z,66.30
2022-10-17T17:33:46.964Z,67.00
2022-10-17T17:36:17.268Z,67.50
2022-10-17T17:38:45.022Z,68.50
2022-10-17T17:41:14.031Z,68.60
2022-10-17T17:43:42.307Z,68.70
2022-10-17T17:46:10.035Z,68.70
2022-10-17T17:48:38.543Z,68.80
2022-10-17T17:51:06.591Z,68.90
2022-10-17T17:53:34.457Z,69.10
2022-10-17T17:56:02.848Z,69.50
2022-10-17T17:58:30.329Z,69.90
2022-10-17T18:00:57.980Z,70.00
2022-10-17T18:03:25.767Z,70.00
2022-10-17T18:05:53.679Z,69.80
2022-10-17T18:08:21.256Z,69.70
2022-10-17T18:10:49.481Z,69.80
2022-10-17T18:13:17.100Z,69.80
2022-10-17T18:15:44.662Z,69.80
2022-10-17T18:18:12.151Z,70.00
2022-10-17T18:20:40.255Z,70.10
2022-10-17T18:23:07.947Z,70.20
2022-10-17T18:25:35.550Z,70.30
2022-10-17T18:28:03.365Z,70.30
2022-10-17T18:30:33.760Z,70.20
2022-10-17T18:33:02.146Z,70.20
2022-10-17T18:35:29.541Z,70.40
2022-10-17T18:37:57.082Z,70.60
2022-10-17T18:40:24.494Z,70.40
2022-10-17T18:42:51.862Z,70.50
2022-10-17T18:45:19.428Z,70.50
2022-10-17T18:47:47.607Z,70.60
2022-10-17T18:50:15.006Z,70.80
2022-10-17T18:52:42.576Z,70.90
2022-10-17T18:55:10.010Z,71.10
2022-10-17T18:57:37.365Z,71.30
2022-10-17T19:00:05.494Z,71.60
2022-10-17T19:02:35.556Z,71.90
2022-10-17T19:05:05.475Z,72.10
2022-10-17T19:07:33.029Z,72.30
2022-10-17T19:10:00.593Z,72.50
2022-10-17T19:12:28.004Z,72.70
2022-10-17T19:14:56.402Z,73.00
2022-10-17T19:17:23.816Z,73.20
2022-10-17T19:19:52.359Z,73.50
2022-10-17T19:22:19.729Z,73.90
2022-10-17T19:24:47.229Z,74.40
2022-10-17T19:27:14.648Z,74.70
2022-10-17T19:29:44.038Z,75.10
2022-10-17T19:32:15.716Z,75.60
2022-10-17T19:34:45.681Z,75.90
2022-10-17T19:37:13.450Z,76.20
2022-10-17T19:39:41.067Z,76.40
2022-10-17T19:42:08.540Z,76.60
2022-10-17T19:44:36.029Z,76.80
2022-10-17T19:47:03.571Z,76.90
2022-10-17T19:49:31.192Z,77.10
2022-10-17T19:51:59.047Z,77.40
2022-10-17T19:54:26.752Z,77.80
2022-10-17T19:56:54.153Z,78.00
2022-10-17T19:59:21.720Z,78.20
2022-10-17T20:01:49.250Z,78.30
2022-10-17T20:04:16.656Z,78.50
2022-10-17T20:06:44.064Z,78.60
2022-10-17T20:09:15.730Z,78.80
2022-10-17T20:11:45.069Z,79.10
2022-10-17T20:14:12.512Z,79.30
2022-10-17T20:16:39.958Z,79.50
2022-10-17T20:19:09.454Z,79.70
2022-10-17T20:21:37.366Z,79.90
2022-10-17T20:24:05.749Z,80.10
2022-10-17T20:26:38.143Z,80.30
2022-10-17T20:29:11.456Z,80.40
2022-10-17T20:31:40.430Z,80.50
2022-10-17T20:34:08.212Z,80.60
2022-10-17T20:36:37.515Z,80.80
2022-10-17T20:39:05.392Z,81.00
2022-10-17T20:41:33.058Z,81.10
2022-10-17T20:44:00.562Z,81.40
2022-10-17T20:49:17.576Z,81.60
2022-10-17T20:51:45.549Z,81.80
2022-10-17T20:54:13.913Z,81.90
2022-10-17T20:56:41.721Z,81.90
2022-10-17T20:59:12.282Z,82.00
2022-10-17T21:01:40.061Z,82.10
2022-10-17T21:04:40.637Z,82.20
2022-10-17T21:06:55.433Z,82.30
2022-10-17T21:09:23.018Z,82.40
2022-10-17T21:11:54.284Z,82.50
2022-10-17T21:22:36.073Z,83.00
2022-10-17T21:31:52.252Z,83.30
2022-10-17T21:34:21.483Z,83.40
2022-10-17T21:36:49.496Z,83.40
2022-10-17T21:39:17.434Z,83.50
2022-10-17T21:41:45.553Z,83.40
2022-10-17T21:44:26.107Z,83.60
